sensor_id;sensor_type;location;lat;lon;timestamp;temperature;humidity
2973;DHT22;1496;51.404;7.232;2023-06-14T00:00:39;18.90;99.90
2973;DHT22;1496;51.404;7.232;2023-06-14T00:03:10;18.80;99.90
2973;DHT22;1496;51.404;7.232;2023-06-14T00:05:39;18.70;99.90
2973;DHT22;1496;51.404;7.232;2023-06-14T00:08:10;18.60;99.90
2973;DHT22;1496;51.404;7.232;2023-06-14T00:10:38;18.60;99.90
2973;DHT22;1496;51.404;7.232;2023-06-14T00:13:08;18.50;99.90
2973;DHT22;1496;51.404;7.232;2023-06-14T00:15:35;18.50;99.90
2973;DHT22;1496;51.404;7.232;2023-06-14T00:18:04;18.40;99.90
2973;DHT22;1496;51.404;7.232;2023-06-14T00:20:32;18.30;99.90
2973;DHT22;1496;51.404;7.232;2023-06-14T00:22:59;18.30;99.90
2973;DHT22;1496;51.404;7.232;2023-06-14T00:25:28;18.20;99.90
2973;DHT22;1496;51.404;7.232;2023-06-14T00:27:56;18.20;99.90
2973;DHT22;1496;51.404;7.232;2023-06-14T00:30:23;18.20;99.90
2973;DHT22;1496;51.404;7.232;2023-06-14T00:32:49;18.10;99.90
2973;DHT22;1496;51.404;7.232;2023-06-14T00:35:18;18.20;99.90
2973;DHT22;1496;51.404;7.232;2023-06-14T00:37:46;18.20;99.90
2973;DHT22;1496;51.404;7.232;2023-06-14T00:40:12;18.10;99.90
2973;DHT22;1496;51.404;7.232;2023-06-14T00:42:40;18.00;99.90
2973;DHT22;1496;51.404;7.232;2023-06-14T00:45:08;17.90;99.90
2973;DHT22;1496;51.404;7.232;2023-06-14T00:47:35;17.90;99.90
2973;DHT22;1496;51.404;7.232;2023-06-14T00:50:07;17.90;99.90
2973;DHT22;1496;51.404;7.232;2023-06-14T00:52:34;17.80;99.90
2973;DHT22;1496;51.404;7.232;2023-06-14T00:55:02;17.80;99.90
2973;DHT22;1496;51.404;7.232;2023-06-14T00:57:31;17.80;99.90
2973;DHT22;1496;51.404;7.232;2023-06-14T00:59:59;17.80;99.90
2973;DHT22;1496;51.404;7.232;2023-06-14T01:02:26;17.80;99.90
2973;DHT22;1496;51.404;7.232;2023-06-14T01:04:53;17.70;99.90
2973;DHT22;1496;51.404;7.232;2023-06-14T01:10:21;17.60;99.90
2973;DHT22;1496;51.404;7.232;2023-06-14T01:13:10;17.70;99.90
2973;DHT22;1496;51.404;7.232;2023-06-14T01:15:43;17.60;99.90
2973;DHT22;1496;51.404;7.232;2023-06-14T01:18:11;17.60;99.90
2973;DHT22;1496;51.404;7.232;2023-06-14T01:20:44;17.50;99.90
2973;DHT22;1496;51.404;7.232;2023-06-14T01:23:11;17.40;99.90
2973;DHT22;1496;51.404;7.232;2023-06-14T01:25:39;17.40;99.90
2973;DHT22;1496;51.404;7.232;2023-06-14T01:28:08;17.50;99.90
2973;DHT22;1496;51.404;7.232;2023-06-14T01:30:41;17.50;99.90
2973;DHT22;1496;51.404;7.232;2023-06-14T01:33:17;17.50;99.90
2973;DHT22;1496;51.404;7.232;2023-06-14T01:35:48;17.40;99.90
2973;DHT22;1496;51.404;7.232;2023-06-14T01:38:15;17.30;99.90
2973;DHT22;1496;51.404;7.232;2023-06-14T01:40:44;17.30;99.90
2973;DHT22;1496;51.404;7.232;2023-06-14T01:43:15;17.30;99.90
2973;DHT22;1496;51.404;7.232;2023-06-14T01:45:46;17.30;99.90
2973;DHT22;1496;51.404;7.232;2023-06-14T01:48:14;17.30;99.90
2973;DHT22;1496;51.404;7.232;2023-06-14T01:50:42;17.30;99.90
2973;DHT22;1496;51.404;7.232;2023-06-14T01:53:10;17.20;99.90
2973;DHT22;1496;51.404;7.232;2023-06-14T01:55:39;17.20;99.90
2973;DHT22;1496;51.404;7.232;2023-06-14T01:58:11;17.20;99.90
2973;DHT22;1496;51.404;7.232;2023-06-14T02:00:37;17.20;99.90
2973;DHT22;1496;51.404;7.232;2023-06-14T02:03:04;17.10;99.90
2973;DHT22;1496;51.404;7.232;2023-06-14T02:05:30;17.00;99.90
2973;DHT22;1496;51.404;7.232;2023-06-14T02:07:57;17.00;99.90
2973;DHT22;1496;51.404;7.232;2023-06-14T02:10:24;16.90;99.90
2973;DHT22;1496;51.404;7.232;2023-06-14T02:12:52;17.00;99.90
2973;DHT22;1496;51.404;7.232;2023-06-14T02:15:18;17.00;99.90
2973;DHT22;1496;51.404;7.232;2023-06-14T02:17:46;17.00;99.90
2973;DHT22;1496;51.404;7.232;2023-06-14T02:20:14;16.90;99.90
2973;DHT22;1496;51.404;7.232;2023-06-14T02:22:41;16.90;99.90
2973;DHT22;1496;51.404;7.232;2023-06-14T02:25:09;16.90;99.90
2973;DHT22;1496;51.404;7.232;2023-06-14T02:27:37;16.90;99.90
2973;DHT22;1496;51.404;7.232;2023-06-14T02:30:04;16.90;99.90
2973;DHT22;1496;51.404;7.232;2023-06-14T02:32:32;16.80;99.90
2973;DHT22;1496;51.404;7.232;2023-06-14T02:35:01;16.80;99.90
2973;DHT22;1496;51.404;7.232;2023-06-14T02:37:28;16.70;99.90
2973;DHT22;1496;51.404;7.232;2023-06-14T02:39:59;16.70;99.90
2973;DHT22;1496;51.404;7.232;2023-06-14T02:42:29;16.60;99.90
2973;DHT22;1496;51.404;7.232;2023-06-14T02:44:56;16.60;99.90
2973;DHT22;1496;51.404;7.232;2023-06-14T02:47:28;16.60;99.90
2973;DHT22;1496;51.404;7.232;2023-06-14T02:49:54;16.50;99.90
2973;DHT22;1496;51.404;7.232;2023-06-14T02:52:21;16.50;99.90
2973;DHT22;1496;51.404;7.232;2023-06-14T02:54:48;16.40;99.90
2973;DHT22;1496;51.404;7.232;2023-06-14T02:57:16;16.50;99.90
2973;DHT22;1496;51.404;7.232;2023-06-14T02:59:43;16.40;99.90
2973;DHT22;1496;51.404;7.232;2023-06-14T03:02:11;16.40;99.90
2973;DHT22;1496;51.404;7.232;2023-06-14T03:04:38;16.30;99.90
2973;DHT22;1496;51.404;7.232;2023-06-14T03:07:11;16.30;99.90
2973;DHT22;1496;51.404;7.232;2023-06-14T03:09:49;16.20;99.90
2973;DHT22;1496;51.404;7.232;2023-06-14T03:12:17;16.20;99.90
2973;DHT22;1496;51.404;7.232;2023-06-14T03:14:44;16.20;99.90
2973;DHT22;1496;51.404;7.232;2023-06-14T03:17:16;16.20;99.90
2973;DHT22;1496;51.404;7.232;2023-06-14T03:19:43;16.20;99.90
2973;DHT22;1496;51.404;7.232;2023-06-14T03:22:11;16.20;99.90
2973;DHT22;1496;51.404;7.232;2023-06-14T03:24:41;16.20;99.90
2973;DHT22;1496;51.404;7.232;2023-06-14T03:27:11;16.30;99.90
2973;DHT22;1496;51.404;7.232;2023-06-14T03:29:42;16.20;99.90
2973;DHT22;1496;51.404;7.232;2023-06-14T03:32:12;16.20;99.90
2973;DHT22;1496;51.404;7.232;2023-06-14T03:34:44;16.10;99.90
2973;DHT22;1496;51.404;7.232;2023-06-14T03:37:17;16.10;99.90
2973;DHT22;1496;51.404;7.232;2023-06-14T03:39:44;16.20;99.90
2973;DHT22;1496;51.404;7.232;2023-06-14T03:42:16;16.10;99.90
2973;DHT22;1496;51.404;7.232;2023-06-14T03:44:44;16.10;99.90
2973;DHT22;1496;51.404;7.232;2023-06-14T03:47:10;16.10;99.90
2973;DHT22;1496;51.404;7.232;2023-06-14T03:49:36;16.00;99.90
2973;DHT22;1496;51.404;7.232;2023-06-14T03:52:04;16.00;99.90
2973;DHT22;1496;51.404;7.232;2023-06-14T03:54:35;16.00;99.90
2973;DHT22;1496;51.404;7.232;2023-06-14T03:57:02;15.90;99.90
2973;DHT22;1496;51.404;7.232;2023-06-14T03:59:29;15.80;99.90
2973;DHT22;1496;51.404;7.232;2023-06-14T04:01:56;15.70;99.90
2973;DHT22;1496;51.404;7.232;2023-06-14T04:04:23;15.60;99.90
2973;DHT22;1496;51.404;7.232;2023-06-14T04:06:58;15.60;99.90
2973;DHT22;1496;51.404;7.232;2023-06-14T04:09:27;15.70;99.90
2973;DHT22;1496;51.404;7.232;2023-06-14T04:11:56;15.70;99.90
2973;DHT22;1496;51.404;7.232;2023-06-14T04:14:26;15.70;99.90
2973;DHT22;1496;51.404;7.232;2023-06-14T04:16:53;15.80;99.90
2973;DHT22;1496;51.404;7.232;2023-06-14T04:19:21;15.80;99.90
2973;DHT22;1496;51.404;7.232;2023-06-14T04:21:47;15.70;99.90
2973;DHT22;1496;51.404;7.232;2023-06-14T04:24:16;15.70;99.90
2973;DHT22;1496;51.404;7.232;2023-06-14T04:26:45;15.70;99.90
2973;DHT22;1496;51.404;7.232;2023-06-14T04:29:18;15.80;99.90
2973;DHT22;1496;51.404;7.232;2023-06-14T04:31:53;15.90;99.90
2973;DHT22;1496;51.404;7.232;2023-06-14T04:34:20;15.90;99.90
2973;DHT22;1496;51.404;7.232;2023-06-14T04:36:56;15.90;99.90
2973;DHT22;1496;51.404;7.232;2023-06-14T04:39:30;15.90;99.90
2973;DHT22;1496;51.404;7.232;2023-06-14T04:41:59;15.80;99.90
2973;DHT22;1496;51.404;7.232;2023-06-14T04:44:28;15.80;99.90
2973;DHT22;1496;51.404;7.232;2023-06-14T04:47:00;15.90;99.90
2973;DHT22;1496;51.404;7.232;2023-06-14T04:49:28;15.90;99.90
2973;DHT22;1496;51.404;7.232;2023-06-14T04:51:58;16.00;99.90
2973;DHT22;1496;51.404;7.232;2023-06-14T04:54:29;16.10;99.90
2973;DHT22;1496;51.404;7.232;2023-06-14T04:56:59;16.20;99.90
2973;DHT22;1496;51.404;7.232;2023-06-14T04:59:28;16.30;99.90
2973;DHT22;1496;51.404;7.232;2023-06-14T05:02:00;16.30;99.90
2973;DHT22;1496;51.404;7.232;2023-06-14T05:04:26;16.40;99.90
2973;DHT22;1496;51.404;7.232;2023-06-14T05:06:55;16.50;99.90
2973;DHT22;1496;51.404;7.232;2023-06-14T05:09:23;16.60;99.90
2973;DHT22;1496;51.404;7.232;2023-06-14T05:11:50;16.70;99.90
2973;DHT22;1496;51.404;7.232;2023-06-14T05:14:18;16.80;99.90
2973;DHT22;1496;51.404;7.232;2023-06-14T05:16:46;16.90;99.90
2973;DHT22;1496;51.404;7.232;2023-06-14T05:19:14;17.00;99.90
2973;DHT22;1496;51.404;7.232;2023-06-14T05:21:40;17.00;99.90
2973;DHT22;1496;51.404;7.232;2023-06-14T05:24:08;17.20;99.90
2973;DHT22;1496;51.404;7.232;2023-06-14T05:26:35;17.30;99.90
2973;DHT22;1496;51.404;7.232;2023-06-14T05:29:02;17.30;99.90
2973;DHT22;1496;51.404;7.232;2023-06-14T05:31:31;17.30;99.90
2973;DHT22;1496;51.404;7.232;2023-06-14T05:33:58;17.30;99.90
2973;DHT22;1496;51.404;7.232;2023-06-14T05:36:25;17.30;99.90
2973;DHT22;1496;51.404;7.232;2023-06-14T05:38:54;17.30;99.90
2973;DHT22;1496;51.404;7.232;2023-06-14T05:41:27;17.40;99.90
2973;DHT22;1496;51.404;7.232;2023-06-14T05:43:55;17.30;99.90
2973;DHT22;1496;51.404;7.232;2023-06-14T05:46:23;17.30;99.90
2973;DHT22;1496;51.404;7.232;2023-06-14T05:48:52;17.40;99.90
2973;DHT22;1496;51.404;7.232;2023-06-14T05:51:18;17.40;99.90
2973;DHT22;1496;51.404;7.232;2023-06-14T05:53:48;17.50;99.90
2973;DHT22;1496;51.404;7.232;2023-06-14T05:56:16;17.60;99.90
2973;DHT22;1496;51.404;7.232;2023-06-14T05:58:45;17.70;99.90
2973;DHT22;1496;51.404;7.232;2023-06-14T06:01:14;17.90;99.90
2973;DHT22;1496;51.404;7.232;2023-06-14T06:03:42;18.00;99.90
2973;DHT22;1496;51.404;7.232;2023-06-14T06:06:12;18.10;99.90
2973;DHT22;1496;51.404;7.232;2023-06-14T06:08:40;18.30;99.90
2973;DHT22;1496;51.404;7.232;2023-06-14T06:11:06;18.50;99.90
2973;DHT22;1496;51.404;7.232;2023-06-14T06:13:32;18.60;99.90
2973;DHT22;1496;51.404;7.232;2023-06-14T06:16:02;18.70;99.90
2973;DHT22;1496;51.404;7.232;2023-06-14T06:18:28;18.80;99.90
2973;DHT22;1496;51.404;7.232;2023-06-14T06:20:55;19.00;99.90
2973;DHT22;1496;51.404;7.232;2023-06-14T06:23:23;19.20;99.90
2973;DHT22;1496;51.404;7.232;2023-06-14T06:25:50;19.30;99.90
2973;DHT22;1496;51.404;7.232;2023-06-14T06:28:18;19.40;99.90
2973;DHT22;1496;51.404;7.232;2023-06-14T06:30:46;19.40;99.90
2973;DHT22;1496;51.404;7.232;2023-06-14T06:33:14;19.40;99.90
2973;DHT22;1496;51.404;7.232;2023-06-14T06:35:41;19.50;99.90
2973;DHT22;1496;51.404;7.232;2023-06-14T06:38:09;19.70;99.90
2973;DHT22;1496;51.404;7.232;2023-06-14T06:40:36;19.80;99.90
2973;DHT22;1496;51.404;7.232;2023-06-14T06:43:04;20.00;99.90
2973;DHT22;1496;51.404;7.232;2023-06-14T06:45:39;20.00;99.90
2973;DHT22;1496;51.404;7.232;2023-06-14T06:48:06;20.10;99.90
2973;DHT22;1496;51.404;7.232;2023-06-14T06:50:32;20.20;99.90
2973;DHT22;1496;51.404;7.232;2023-06-14T06:52:59;20.30;99.90
2973;DHT22;1496;51.404;7.232;2023-06-14T06:55:26;20.30;99.90
2973;DHT22;1496;51.404;7.232;2023-06-14T06:57:52;20.30;99.90
2973;DHT22;1496;51.404;7.232;2023-06-14T07:00:21;20.40;99.90
2973;DHT22;1496;51.404;7.232;2023-06-14T07:02:47;20.30;99.90
2973;DHT22;1496;51.404;7.232;2023-06-14T07:05:14;20.20;99.90
2973;DHT22;1496;51.404;7.232;2023-06-14T07:07:42;20.20;99.90
2973;DHT22;1496;51.404;7.232;2023-06-14T07:10:09;20.20;99.90
2973;DHT22;1496;51.404;7.232;2023-06-14T07:12:36;20.30;99.90
2973;DHT22;1496;51.404;7.232;2023-06-14T07:15:07;20.40;99.90
2973;DHT22;1496;51.404;7.232;2023-06-14T07:17:35;20.50;99.90
2973;DHT22;1496;51.404;7.232;2023-06-14T07:20:03;20.30;99.90
2973;DHT22;1496;51.404;7.232;2023-06-14T07:22:36;20.50;99.90
2973;DHT22;1496;51.404;7.232;2023-06-14T07:25:04;20.70;99.90
2973;DHT22;1496;51.404;7.232;2023-06-14T07:27:31;20.90;99.90
2973;DHT22;1496;51.404;7.232;2023-06-14T07:29:58;20.90;99.90
2973;DHT22;1496;51.404;7.232;2023-06-14T07:32:26;20.80;99.90
2973;DHT22;1496;51.404;7.232;2023-06-14T07:34:53;20.90;99.90
2973;DHT22;1496;51.404;7.232;2023-06-14T07:37:20;21.00;99.90
2973;DHT22;1496;51.404;7.232;2023-06-14T07:39:46;21.00;99.90
2973;DHT22;1496;51.404;7.232;2023-06-14T07:42:12;21.00;99.90
2973;DHT22;1496;51.404;7.232;2023-06-14T07:44:39;21.00;99.90
2973;DHT22;1496;51.404;7.232;2023-06-14T07:47:07;20.90;99.90
2973;DHT22;1496;51.404;7.232;2023-06-14T07:49:34;20.80;99.90
2973;DHT22;1496;51.404;7.232;2023-06-14T07:52:00;20.80;99.90
2973;DHT22;1496;51.404;7.232;2023-06-14T07:54:27;20.80;99.90
2973;DHT22;1496;51.404;7.232;2023-06-14T07:56:56;20.90;99.90
2973;DHT22;1496;51.404;7.232;2023-06-14T07:59:23;20.90;99.90
2973;DHT22;1496;51.404;7.232;2023-06-14T08:01:51;20.90;99.90
2973;DHT22;1496;51.404;7.232;2023-06-14T08:04:17;20.90;99.90
2973;DHT22;1496;51.404;7.232;2023-06-14T08:06:45;20.90;99.90
2973;DHT22;1496;51.404;7.232;2023-06-14T08:09:12;20.70;99.90
2973;DHT22;1496;51.404;7.232;2023-06-14T08:11:38;20.80;99.90
2973;DHT22;1496;51.404;7.232;2023-06-14T08:14:05;20.70;99.90
2973;DHT22;1496;51.404;7.232;2023-06-14T08:16:32;20.60;99.90
2973;DHT22;1496;51.404;7.232;2023-06-14T08:18:58;20.60;99.90
2973;DHT22;1496;51.404;7.232;2023-06-14T08:21:25;20.80;99.90
2973;DHT22;1496;51.404;7.232;2023-06-14T08:23:55;20.70;99.90
2973;DHT22;1496;51.404;7.232;2023-06-14T08:26:22;20.80;99.90
2973;DHT22;1496;51.404;7.232;2023-06-14T08:28:49;20.80;99.90
2973;DHT22;1496;51.404;7.232;2023-06-14T08:31:18;20.90;99.90
2973;DHT22;1496;51.404;7.232;2023-06-14T08:33:44;21.10;99.90
2973;DHT22;1496;51.404;7.232;2023-06-14T08:36:12;21.20;99.90
2973;DHT22;1496;51.404;7.232;2023-06-14T08:38:39;21.20;99.90
2973;DHT22;1496;51.404;7.232;2023-06-14T08:41:06;21.20;99.90
2973;DHT22;1496;51.404;7.232;2023-06-14T08:43:34;21.00;99.90
2973;DHT22;1496;51.404;7.232;2023-06-14T08:46:03;21.00;99.90
2973;DHT22;1496;51.404;7.232;2023-06-14T08:48:30;20.80;99.90
2973;DHT22;1496;51.404;7.232;2023-06-14T08:51:03;20.90;99.90
2973;DHT22;1496;51.404;7.232;2023-06-14T08:53:31;21.00;99.90
2973;DHT22;1496;51.404;7.232;2023-06-14T08:56:02;21.00;99.90
2973;DHT22;1496;51.404;7.232;2023-06-14T08:58:34;21.10;99.90
2973;DHT22;1496;51.404;7.232;2023-06-14T09:01:02;21.30;99.90
2973;DHT22;1496;51.404;7.232;2023-06-14T09:03:28;21.30;99.90
2973;DHT22;1496;51.404;7.232;2023-06-14T09:05:57;21.20;99.90
2973;DHT22;1496;51.404;7.232;2023-06-14T09:08:29;21.30;99.90
2973;DHT22;1496;51.404;7.232;2023-06-14T09:10:57;21.50;99.90
2973;DHT22;1496;51.404;7.232;2023-06-14T09:13:26;21.50;99.90
2973;DHT22;1496;51.404;7.232;2023-06-14T09:15:54;21.50;99.90
2973;DHT22;1496;51.404;7.232;2023-06-14T09:18:21;21.50;99.90
2973;DHT22;1496;51.404;7.232;2023-06-14T09:20:49;21.60;99.90
2973;DHT22;1496;51.404;7.232;2023-06-14T09:23:21;21.60;99.90
2973;DHT22;1496;51.404;7.232;2023-06-14T09:25:48;21.60;99.90
2973;DHT22;1496;51.404;7.232;2023-06-14T09:28:15;21.60;99.90
2973;DHT22;1496;51.404;7.232;2023-06-14T09:30:42;21.60;99.90
2973;DHT22;1496;51.404;7.232;2023-06-14T09:33:08;21.60;99.90
2973;DHT22;1496;51.404;7.232;2023-06-14T09:35:35;21.60;99.90
2973;DHT22;1496;51.404;7.232;2023-06-14T09:38:02;21.60;99.90
2973;DHT22;1496;51.404;7.232;2023-06-14T09:40:34;21.70;99.90
2973;DHT22;1496;51.404;7.232;2023-06-14T09:43:05;21.90;99.90
2973;DHT22;1496;51.404;7.232;2023-06-14T09:45:33;22.10;99.90
2973;DHT22;1496;51.404;7.232;2023-06-14T09:48:00;22.20;99.90
2973;DHT22;1496;51.404;7.232;2023-06-14T09:50:28;22.10;99.90
2973;DHT22;1496;51.404;7.232;2023-06-14T09:52:59;22.00;99.90
2973;DHT22;1496;51.404;7.232;2023-06-14T09:55:30;22.20;99.90
2973;DHT22;1496;51.404;7.232;2023-06-14T09:57:58;22.10;99.90
2973;DHT22;1496;51.404;7.232;2023-06-14T10:00:27;22.20;99.90
2973;DHT22;1496;51.404;7.232;2023-06-14T10:03:00;22.20;99.90
2973;DHT22;1496;51.404;7.232;2023-06-14T10:05:30;22.10;99.90
2973;DHT22;1496;51.404;7.232;2023-06-14T10:08:05;22.20;99.90
2973;DHT22;1496;51.404;7.232;2023-06-14T10:10:33;22.30;99.90
2973;DHT22;1496;51.404;7.232;2023-06-14T10:13:00;22.10;99.90
2973;DHT22;1496;51.404;7.232;2023-06-14T10:15:58;22.20;99.90
2973;DHT22;1496;51.404;7.232;2023-06-14T10:19:18;22.40;99.90
2973;DHT22;1496;51.404;7.232;2023-06-14T10:22:06;22.50;99.90
2973;DHT22;1496;51.404;7.232;2023-06-14T10:24:41;22.30;99.90
2973;DHT22;1496;51.404;7.232;2023-06-14T10:27:08;22.40;99.90
2973;DHT22;1496;51.404;7.232;2023-06-14T10:32:26;22.60;99.90
2973;DHT22;1496;51.404;7.232;2023-06-14T10:35:05;22.60;99.90
2973;DHT22;1496;51.404;7.232;2023-06-14T10:37:36;22.60;99.90
2973;DHT22;1496;51.404;7.232;2023-06-14T10:40:03;22.70;99.90
2973;DHT22;1496;51.404;7.232;2023-06-14T10:42:34;22.70;99.90
2973;DHT22;1496;51.404;7.232;2023-06-14T10:45:02;22.70;99.90
2973;DHT22;1496;51.404;7.232;2023-06-14T10:47:33;22.80;99.90
2973;DHT22;1496;51.404;7.232;2023-06-14T10:50:06;22.90;99.90
2973;DHT22;1496;51.404;7.232;2023-06-14T10:52:38;22.90;99.90
2973;DHT22;1496;51.404;7.232;2023-06-14T10:57:51;22.70;99.90
2973;DHT22;1496;51.404;7.232;2023-06-14T11:00:21;22.70;99.90
2973;DHT22;1496;51.404;7.232;2023-06-14T11:05:52;22.70;99.90
2973;DHT22;1496;51.404;7.232;2023-06-14T11:11:14;22.90;99.90
2973;DHT22;1496;51.404;7.232;2023-06-14T11:13:45;22.80;99.90
2973;DHT22;1496;51.404;7.232;2023-06-14T11:16:17;23.00;99.90
2973;DHT22;1496;51.404;7.232;2023-06-14T11:18:47;23.00;99.90
2973;DHT22;1496;51.404;7.232;2023-06-14T11:21:18;22.80;99.90
2973;DHT22;1496;51.404;7.232;2023-06-14T11:23:51;22.90;99.90
2973;DHT22;1496;51.404;7.232;2023-06-14T11:26:30;23.10;99.90
2973;DHT22;1496;51.404;7.232;2023-06-14T11:29:00;23.30;99.90
2973;DHT22;1496;51.404;7.232;2023-06-14T11:31:29;23.30;99.90
2973;DHT22;1496;51.404;7.232;2023-06-14T11:33:56;23.40;99.90
2973;DHT22;1496;51.404;7.232;2023-06-14T11:36:23;23.40;99.90
2973;DHT22;1496;51.404;7.232;2023-06-14T11:39:15;23.40;99.90
2973;DHT22;1496;51.404;7.232;2023-06-14T11:41:46;23.50;99.90
2973;DHT22;1496;51.404;7.232;2023-06-14T11:44:13;23.50;99.90
2973;DHT22;1496;51.404;7.232;2023-06-14T11:46:42;23.20;99.90
2973;DHT22;1496;51.404;7.232;2023-06-14T11:49:10;23.00;99.90
2973;DHT22;1496;51.404;7.232;2023-06-14T11:51:38;23.20;99.90
2973;DHT22;1496;51.404;7.232;2023-06-14T11:54:06;23.50;99.90
2973;DHT22;1496;51.404;7.232;2023-06-14T11:56:37;23.80;99.90
2973;DHT22;1496;51.404;7.232;2023-06-14T11:59:03;23.50;99.90
2973;DHT22;1496;51.404;7.232;2023-06-14T12:01:36;23.50;99.90
2973;DHT22;1496;51.404;7.232;2023-06-14T12:04:04;23.60;99.90
2973;DHT22;1496;51.404;7.232;2023-06-14T12:06:32;23.40;99.90
2973;DHT22;1496;51.404;7.232;2023-06-14T12:08:59;23.40;99.90
2973;DHT22;1496;51.404;7.232;2023-06-14T12:11:34;23.60;99.90
2973;DHT22;1496;51.404;7.232;2023-06-14T12:14:04;23.90;99.90
2973;DHT22;1496;51.404;7.232;2023-06-14T12:16:33;23.60;99.90
2973;DHT22;1496;51.404;7.232;2023-06-14T12:19:08;23.60;99.90
2973;DHT22;1496;51.404;7.232;2023-06-14T12:21:37;23.70;99.90
2973;DHT22;1496;51.404;7.232;2023-06-14T12:24:07;23.60;99.90
2973;DHT22;1496;51.404;7.232;2023-06-14T12:26:38;23.70;99.90
2973;DHT22;1496;51.404;7.232;2023-06-14T12:29:07;23.60;99.90
2973;DHT22;1496;51.404;7.232;2023-06-14T12:31:34;23.60;99.90
2973;DHT22;1496;51.404;7.232;2023-06-14T12:34:03;23.80;99.90
2973;DHT22;1496;51.404;7.232;2023-06-14T12:36:29;23.70;99.90
2973;DHT22;1496;51.404;7.232;2023-06-14T12:38:56;23.70;99.90
2973;DHT22;1496;51.404;7.232;2023-06-14T12:41:24;23.90;99.90
2973;DHT22;1496;51.404;7.232;2023-06-14T12:43:54;23.90;99.90
2973;DHT22;1496;51.404;7.232;2023-06-14T12:46:23;23.90;99.90
2973;DHT22;1496;51.404;7.232;2023-06-14T12:48:49;24.10;99.90
2973;DHT22;1496;51.404;7.232;2023-06-14T12:51:17;23.80;99.90
2973;DHT22;1496;51.404;7.232;2023-06-14T12:53:43;23.90;99.90
2973;DHT22;1496;51.404;7.232;2023-06-14T12:56:11;24.00;99.90
2973;DHT22;1496;51.404;7.232;2023-06-14T12:58:37;23.70;99.90
2973;DHT22;1496;51.404;7.232;2023-06-14T13:01:05;23.70;99.90
2973;DHT22;1496;51.404;7.232;2023-06-14T13:03:31;23.70;99.90
2973;DHT22;1496;51.404;7.232;2023-06-14T13:06:01;23.90;99.90
2973;DHT22;1496;51.404;7.232;2023-06-14T13:08:28;23.70;99.90
2973;DHT22;1496;51.404;7.232;2023-06-14T13:10:54;23.80;99.90
2973;DHT22;1496;51.404;7.232;2023-06-14T13:13:21;23.80;99.90
2973;DHT22;1496;51.404;7.232;2023-06-14T13:15:47;23.80;99.90
2973;DHT22;1496;51.404;7.232;2023-06-14T13:18:15;23.70;99.90
2973;DHT22;1496;51.404;7.232;2023-06-14T13:20:42;23.80;99.90
2973;DHT22;1496;51.404;7.232;2023-06-14T13:23:09;23.90;99.90
2973;DHT22;1496;51.404;7.232;2023-06-14T13:25:39;23.90;99.90
2973;DHT22;1496;51.404;7.232;2023-06-14T13:28:07;23.90;99.90
2973;DHT22;1496;51.404;7.232;2023-06-14T13:30:33;24.00;99.90
2973;DHT22;1496;51.404;7.232;2023-06-14T13:33:01;23.90;99.90
2973;DHT22;1496;51.404;7.232;2023-06-14T13:35:28;23.70;99.90
2973;DHT22;1496;51.404;7.232;2023-06-14T13:37:55;23.70;99.90
2973;DHT22;1496;51.404;7.232;2023-06-14T13:40:25;23.70;99.90
2973;DHT22;1496;51.404;7.232;2023-06-14T13:42:52;23.90;99.90
2973;DHT22;1496;51.404;7.232;2023-06-14T13:45:18;23.90;99.90
2973;DHT22;1496;51.404;7.232;2023-06-14T13:47:44;23.80;99.90
2973;DHT22;1496;51.404;7.232;2023-06-14T13:50:15;23.80;99.90
2973;DHT22;1496;51.404;7.232;2023-06-14T13:52:42;23.90;99.90
2973;DHT22;1496;51.404;7.232;2023-06-14T13:55:09;23.90;99.90
2973;DHT22;1496;51.404;7.232;2023-06-14T13:57:35;23.80;99.90
2973;DHT22;1496;51.404;7.232;2023-06-14T14:00:04;23.90;99.90
2973;DHT22;1496;51.404;7.232;2023-06-14T14:02:47;23.90;99.90
2973;DHT22;1496;51.404;7.232;2023-06-14T14:05:15;23.80;99.90
2973;DHT22;1496;51.404;7.232;2023-06-14T14:07:42;23.70;99.90
2973;DHT22;1496;51.404;7.232;2023-06-14T14:10:10;23.70;99.90
2973;DHT22;1496;51.404;7.232;2023-06-14T14:12:40;23.70;99.90
2973;DHT22;1496;51.404;7.232;2023-06-14T14:15:07;23.70;99.90
2973;DHT22;1496;51.404;7.232;2023-06-14T14:17:39;23.80;99.90
2973;DHT22;1496;51.404;7.232;2023-06-14T14:20:08;23.80;99.90
2973;DHT22;1496;51.404;7.232;2023-06-14T14:22:37;23.80;99.90
2973;DHT22;1496;51.404;7.232;2023-06-14T14:25:05;23.60;99.90
2973;DHT22;1496;51.404;7.232;2023-06-14T14:27:32;23.60;99.90
2973;DHT22;1496;51.404;7.232;2023-06-14T14:29:58;23.60;99.90
2973;DHT22;1496;51.404;7.232;2023-06-14T14:32:25;23.50;99.90
2973;DHT22;1496;51.404;7.232;2023-06-14T14:34:53;23.60;99.90
2973;DHT22;1496;51.404;7.232;2023-06-14T14:37:20;23.60;99.90
2973;DHT22;1496;51.404;7.232;2023-06-14T14:39:49;23.50;99.90
2973;DHT22;1496;51.404;7.232;2023-06-14T14:42:19;23.60;99.90
2973;DHT22;1496;51.404;7.232;2023-06-14T14:44:47;23.50;99.90
2973;DHT22;1496;51.404;7.232;2023-06-14T14:47:15;23.50;99.90
2973;DHT22;1496;51.404;7.232;2023-06-14T14:49:41;23.30;99.90
2973;DHT22;1496;51.404;7.232;2023-06-14T14:52:09;23.50;99.90
2973;DHT22;1496;51.404;7.232;2023-06-14T14:54:36;23.50;99.90
2973;DHT22;1496;51.404;7.232;2023-06-14T14:57:03;23.50;99.90
2973;DHT22;1496;51.404;7.232;2023-06-14T14:59:32;23.40;99.90
2973;DHT22;1496;51.404;7.232;2023-06-14T15:01:58;23.40;99.90
2973;DHT22;1496;51.404;7.232;2023-06-14T15:04:25;23.30;99.90
2973;DHT22;1496;51.404;7.232;2023-06-14T15:06:52;23.30;99.90
2973;DHT22;1496;51.404;7.232;2023-06-14T15:09:20;23.30;99.90
2973;DHT22;1496;51.404;7.232;2023-06-14T15:11:48;23.30;99.90
2973;DHT22;1496;51.404;7.232;2023-06-14T15:14:14;23.30;99.90
2973;DHT22;1496;51.404;7.232;2023-06-14T15:16:42;23.20;99.90
2973;DHT22;1496;51.404;7.232;2023-06-14T15:19:08;23.30;99.90
2973;DHT22;1496;51.404;7.232;2023-06-14T15:21:35;23.20;99.90
2973;DHT22;1496;51.404;7.232;2023-06-14T15:24:02;23.20;99.90
2973;DHT22;1496;51.404;7.232;2023-06-14T15:26:29;23.20;99.90
2973;DHT22;1496;51.404;7.232;2023-06-14T15:28:56;23.20;99.90
2973;DHT22;1496;51.404;7.232;2023-06-14T15:31:22;23.20;99.90
2973;DHT22;1496;51.404;7.232;2023-06-14T15:33:53;23.20;99.90
2973;DHT22;1496;51.404;7.232;2023-06-14T15:36:19;23.20;99.90
2973;DHT22;1496;51.404;7.232;2023-06-14T15:38:48;23.20;99.90
2973;DHT22;1496;51.404;7.232;2023-06-14T15:41:16;23.20;99.90
2973;DHT22;1496;51.404;7.232;2023-06-14T15:43:43;23.20;99.90
2973;DHT22;1496;51.404;7.232;2023-06-14T15:46:10;23.20;99.90
2973;DHT22;1496;51.404;7.232;2023-06-14T15:48:36;23.10;99.90
2973;DHT22;1496;51.404;7.232;2023-06-14T15:51:04;23.10;99.90
2973;DHT22;1496;51.404;7.232;2023-06-14T15:53:30;23.00;99.90
2973;DHT22;1496;51.404;7.232;2023-06-14T15:55:58;23.00;99.90
2973;DHT22;1496;51.404;7.232;2023-06-14T15:58:25;22.90;99.90
2973;DHT22;1496;51.404;7.232;2023-06-14T16:00:51;22.90;99.90
2973;DHT22;1496;51.404;7.232;2023-06-14T16:03:17;23.00;99.90
2973;DHT22;1496;51.404;7.232;2023-06-14T16:05:45;23.00;99.70
2973;DHT22;1496;51.404;7.232;2023-06-14T16:08:11;23.00;99.20
2973;DHT22;1496;51.404;7.232;2023-06-14T16:10:40;23.00;99.20
2973;DHT22;1496;51.404;7.232;2023-06-14T16:13:08;22.90;99.00
2973;DHT22;1496;51.404;7.232;2023-06-14T16:15:34;22.90;99.60
2973;DHT22;1496;51.404;7.232;2023-06-14T16:18:02;22.90;98.90
2973;DHT22;1496;51.404;7.232;2023-06-14T16:20:30;22.80;98.60
2973;DHT22;1496;51.404;7.232;2023-06-14T16:22:56;22.70;98.10
2973;DHT22;1496;51.404;7.232;2023-06-14T16:25:24;22.80;97.90